Time;durP1;ratioP1;P1;durP2;ratioP2;P2;SDS_P1;SDS_P2;PMS_P1;PMS_P2;Temp;Humidity;BMP_temperature;BMP_pressure;BME280_temperature;BME280_humidity;BME280_pressure;Samples;Min_cycle;Max_cycle;Signal;HPM_P1;HPM_P2
2024/02/01 00:00:59;;;;;;;53.95;33.78;;;;;;;;;;6240780;28;24428;-78
2024/02/01 00:04:01;;;;;;;53.83;34.65;;;;;;;;;;6238511;28;24420;-78
2024/02/01 00:07:04;;;;;;;53.22;34.35;;;;;;;;;;6249989;28;24424;-77
2024/02/01 00:10:07;;;;;;;51.88;33.58;;;;;;;;;;6241308;28;24422;-77
2024/02/01 00:13:10;;;;;;;55.20;35.63;;;;;;;;;;6238657;28;24436;-78
2024/02/01 00:16:11;;;;;;;55.10;36.10;;;;;;;;;;6242334;28;24435;-78
2024/02/01 00:19:13;;;;;;;55.20;35.53;;;;;;;;;;6240040;28;24526;-78
2024/02/01 00:22:15;;;;;;;54.92;36.60;;;;;;;;;;6238529;28;24428;-79
2024/02/01 00:25:16;;;;;;;57.15;38.25;;;;;;;;;;6241155;28;24458;-79
2024/02/01 00:28:20;;;;;;;60.53;38.92;;;;;;;;;;6239986;28;24439;-78
2024/02/01 00:31:21;;;;;;;59.90;39.28;;;;;;;;;;6240502;28;24446;-78
2024/02/01 00:34:23;;;;;;;59.80;40.13;;;;;;;;;;6240474;28;24431;-78
2024/02/01 00:37:24;;;;;;;59.15;39.58;;;;;;;;;;6239855;28;24482;-78
2024/02/01 00:40:26;;;;;;;57.83;38.70;;;;;;;;;;6242263;28;24423;-78
2024/02/01 00:43:31;;;;;;;61.67;40.47;;;;;;;;;;6241513;28;25860;-78
2024/02/01 00:46:33;;;;;;;58.58;39.38;;;;;;;;;;6240670;28;24420;-78
2024/02/01 00:49:35;;;;;;;61.47;40.47;;;;;;;;;;6240678;28;24470;-78
2024/02/01 00:52:36;;;;;;;60.00;39.95;;;;;;;;;;6238225;28;24423;-78
2024/02/01 00:55:40;;;;;;;63.57;40.13;;;;;;;;;;6236412;28;24423;-78
2024/02/01 00:58:43;;;;;;;60.92;39.58;;;;;;;;;;6241600;28;24458;-74
2024/02/01 01:01:45;;;;;;;60.37;40.03;;;;;;;;;;6236638;28;24417;-74
2024/02/01 01:04:46;;;;;;;59.95;40.00;;;;;;;;;;6236383;28;24438;-73
2024/02/01 01:07:48;;;;;;;57.70;39.83;;;;;;;;;;6239144;28;24419;-74
2024/02/01 01:10:50;;;;;;;60.45;40.13;;;;;;;;;;6239624;28;24419;-74
2024/02/01 01:13:53;;;;;;;61.60;40.50;;;;;;;;;;6241886;28;24777;-74
2024/02/01 01:16:55;;;;;;;63.53;41.80;;;;;;;;;;6243919;28;24413;-74
2024/02/01 01:20:02;;;;;;;61.57;41.33;;;;;;;;;;6246816;28;24707;-74
2024/02/01 01:23:04;;;;;;;63.97;42.67;;;;;;;;;;6247279;28;24457;-75
2024/02/01 01:26:05;;;;;;;90.77;56.77;;;;;;;;;;6247024;28;24484;-75
2024/02/01 01:29:10;;;;;;;96.40;58.43;;;;;;;;;;6248462;28;24497;-74
2024/02/01 01:32:11;;;;;;;139.60;79.17;;;;;;;;;;6243300;28;24893;-75
2024/02/01 01:35:13;;;;;;;127.90;72.43;;;;;;;;;;6247216;28;24428;-74
2024/02/01 01:38:16;;;;;;;156.35;84.93;;;;;;;;;;6246368;28;24434;-75
2024/02/01 01:41:17;;;;;;;117.57;68.82;;;;;;;;;;6245867;28;24440;-75
2024/02/01 01:44:20;;;;;;;128.97;77.53;;;;;;;;;;6243454;28;24974;-74
2024/02/01 01:47:28;;;;;;;114.97;65.95;;;;;;;;;;6244218;28;24412;-75
2024/02/01 01:50:29;;;;;;;79.45;51.17;;;;;;;;;;6244980;28;24439;-75
2024/02/01 01:53:31;;;;;;;74.07;46.78;;;;;;;;;;6242740;28;24975;-74
2024/02/01 01:56:37;;;;;;;65.47;44.33;;;;;;;;;;6245051;28;25106;-75
2024/02/01 01:59:40;;;;;;;67.60;43.63;;;;;;;;;;6242145;28;24412;-75
2024/02/01 02:02:43;;;;;;;66.68;44.20;;;;;;;;;;6241620;28;24442;-74
2024/02/01 02:05:45;;;;;;;66.97;44.13;;;;;;;;;;6241423;28;24427;-75
2024/02/01 02:08:48;;;;;;;67.38;43.30;;;;;;;;;;6243171;28;24417;-79
2024/02/01 02:11:50;;;;;;;66.70;43.28;;;;;;;;;;6241290;28;24451;-79
2024/02/01 02:14:59;;;;;;;63.78;42.65;;;;;;;;;;6244878;28;24428;-79
2024/02/01 02:18:00;;;;;;;67.63;42.92;;;;;;;;;;6242325;28;24436;-79
2024/02/01 02:21:13;;;;;;;65.15;42.30;;;;;;;;;;6243341;28;24848;-79
2024/02/01 02:24:16;;;;;;;63.22;41.88;;;;;;;;;;6241548;28;24439;-79
2024/02/01 02:27:20;;;;;;;60.63;40.80;;;;;;;;;;6244229;28;24431;-79
2024/02/01 02:30:22;;;;;;;60.55;40.88;;;;;;;;;;6242358;28;24435;-79
2024/02/01 02:33:23;;;;;;;60.50;41.63;;;;;;;;;;6242628;28;24416;-79
2024/02/01 02:36:25;;;;;;;63.15;42.28;;;;;;;;;;6245083;28;24434;-78
2024/02/01 02:39:27;;;;;;;60.22;41.20;;;;;;;;;;6243674;28;24428;-81
2024/02/01 02:42:29;;;;;;;61.15;40.25;;;;;;;;;;6240613;28;24424;-79
2024/02/01 02:45:31;;;;;;;59.70;39.60;;;;;;;;;;6242964;28;24526;-79
2024/02/01 02:48:33;;;;;;;61.00;40.13;;;;;;;;;;6241428;28;24942;-79
2024/02/01 02:51:35;;;;;;;59.20;38.85;;;;;;;;;;6244589;28;24436;-79
2024/02/01 02:54:37;;;;;;;61.25;39.55;;;;;;;;;;6242272;28;24456;-79
2024/02/01 02:57:39;;;;;;;57.20;38.43;;;;;;;;;;6237920;28;24447;-79
2024/02/01 03:00:41;;;;;;;58.23;38.07;;;;;;;;;;6242993;28;24431;-79
2024/02/01 03:03:42;;;;;;;58.40;37.70;;;;;;;;;;6242280;28;24622;-79
2024/02/01 03:06:44;;;;;;;57.60;37.03;;;;;;;;;;6242985;28;24435;-79
2024/02/01 03:09:47;;;;;;;54.93;36.47;;;;;;;;;;6241039;28;24467;-79
2024/02/01 03:12:48;;;;;;;57.08;36.80;;;;;;;;;;6241260;28;24505;-79
2024/02/01 03:15:50;;;;;;;58.05;39.15;;;;;;;;;;6271514;28;24441;-78
2024/02/01 03:18:51;;;;;;;61.13;40.78;;;;;;;;;;6239502;28;24856;-78
2024/02/01 03:21:55;;;;;;;60.97;41.08;;;;;;;;;;6242173;28;24420;-79
2024/02/01 03:24:59;;;;;;;59.42;41.33;;;;;;;;;;6273066;28;24947;-78
2024/02/01 03:28:03;;;;;;;57.30;39.60;;;;;;;;;;6239093;28;24615;-79
2024/02/01 03:31:05;;;;;;;60.03;40.03;;;;;;;;;;6265099;28;24432;-78
2024/02/01 03:34:10;;;;;;;58.30;38.00;;;;;;;;;;6265660;28;24519;-78
2024/02/01 03:37:14;;;;;;;58.03;38.63;;;;;;;;;;6261660;28;25071;-79
2024/02/01 03:40:19;;;;;;;57.17;38.13;;;;;;;;;;6264477;28;24443;-78
2024/02/01 03:43:21;;;;;;;57.03;38.80;;;;;;;;;;6265291;28;24626;-79
2024/02/01 03:46:26;;;;;;;55.83;38.10;;;;;;;;;;6264336;28;24489;-79
2024/02/01 03:49:28;;;;;;;56.60;38.15;;;;;;;;;;6267243;28;24737;-80
2024/02/01 03:52:30;;;;;;;61.35;38.63;;;;;;;;;;6265531;28;24411;-81
2024/02/01 03:55:33;;;;;;;58.95;38.65;;;;;;;;;;6264076;28;24407;-79
2024/02/01 03:58:35;;;;;;;57.40;37.30;;;;;;;;;;6267430;28;24419;-79
2024/02/01 04:01:40;;;;;;;55.40;36.10;;;;;;;;;;6263844;28;24426;-78
2024/02/01 04:04:45;;;;;;;58.93;37.37;;;;;;;;;;6265547;28;24494;-79
2024/02/01 04:07:46;;;;;;;56.17;36.97;;;;;;;;;;6266747;28;24851;-79
2024/02/01 04:10:49;;;;;;;58.35;39.70;;;;;;;;;;6264106;28;24838;-79
2024/02/01 04:13:51;;;;;;;67.90;43.65;;;;;;;;;;6265656;28;24855;-79
2024/02/01 04:16:55;;;;;;;68.83;41.77;;;;;;;;;;6267349;28;24508;-79
2024/02/01 04:19:57;;;;;;;66.35;42.05;;;;;;;;;;6264308;28;24789;-79
2024/02/01 04:22:58;;;;;;;64.45;40.85;;;;;;;;;;6267337;28;25010;-78
2024/02/01 04:26:01;;;;;;;62.80;41.70;;;;;;;;;;6265797;28;24415;-75
2024/02/01 04:29:03;;;;;;;61.05;41.88;;;;;;;;;;6260193;28;24442;-79
2024/02/01 04:32:06;;;;;;;64.35;40.97;;;;;;;;;;6264946;28;24451;-78
2024/02/01 04:35:07;;;;;;;59.83;39.95;;;;;;;;;;6263375;28;24427;-78
2024/02/01 04:38:10;;;;;;;62.55;40.67;;;;;;;;;;6263486;28;24614;-79
2024/02/01 04:41:14;;;;;;;57.50;36.80;;;;;;;;;;6265806;28;24417;-78
2024/02/01 04:44:15;;;;;;;51.13;34.05;;;;;;;;;;6265513;28;24488;-78
2024/02/01 04:47:17;;;;;;;48.53;31.33;;;;;;;;;;6262720;28;24422;-79
2024/02/01 04:50:18;;;;;;;48.30;30.58;;;;;;;;;;6265468;28;24451;-79
2024/02/01 04:53:20;;;;;;;44.35;29.15;;;;;;;;;;6261793;28;24419;-79
2024/02/01 04:56:23;;;;;;;44.10;30.33;;;;;;;;;;6262214;28;24423;-79
2024/02/01 04:59:24;;;;;;;45.65;29.38;;;;;;;;;;6265494;28;24601;-79
2024/02/01 05:02:26;;;;;;;41.35;27.77;;;;;;;;;;6263471;28;24416;-79
2024/02/01 05:05:27;;;;;;;43.90;28.05;;;;;;;;;;6265256;28;24430;-79
2024/02/01 05:08:29;;;;;;;43.97;28.10;;;;;;;;;;6266567;28;24419;-79
2024/02/01 05:11:32;;;;;;;40.92;28.23;;;;;;;;;;6261874;28;24427;-79
2024/02/01 05:14:34;;;;;;;38.22;26.05;;;;;;;;;;6261001;28;24420;-79
2024/02/01 05:17:35;;;;;;;38.40;26.17;;;;;;;;;;6265073;28;24821;-79
2024/02/01 05:20:38;;;;;;;36.13;24.17;;;;;;;;;;6263161;28;24428;-79
2024/02/01 05:23:39;;;;;;;41.63;23.55;;;;;;;;;;6262497;28;24419;-78
2024/02/01 05:26:46;;;;;;;32.92;21.33;;;;;;;;;;6262652;28;24431;-79
2024/02/01 05:29:49;;;;;;;34.00;21.20;;;;;;;;;;6268161;28;24495;-79
2024/02/01 05:32:52;;;;;;;34.13;21.73;;;;;;;;;;6260661;28;24725;-79
2024/02/01 05:35:54;;;;;;;32.00;21.40;;;;;;;;;;6264130;28;24494;-76
2024/02/01 05:38:56;;;;;;;31.77;20.85;;;;;;;;;;6264746;28;24427;-73
2024/02/01 05:41:59;;;;;;;31.65;20.60;;;;;;;;;;6266423;28;25666;-75
2024/02/01 05:45:01;;;;;;;32.33;21.25;;;;;;;;;;6264422;28;24425;-74
2024/02/01 05:48:03;;;;;;;30.15;20.33;;;;;;;;;;6263132;28;24785;-74
2024/02/01 05:51:06;;;;;;;28.92;19.92;;;;;;;;;;6261251;28;24434;-74
2024/02/01 05:54:08;;;;;;;28.60;19.05;;;;;;;;;;6263479;28;24523;-74
2024/02/01 05:57:12;;;;;;;35.80;21.42;;;;;;;;;;6260815;28;24421;-74
2024/02/01 06:00:19;;;;;;;29.47;20.57;;;;;;;;;;6267723;28;24439;-74
2024/02/01 06:03:21;;;;;;;30.98;20.00;;;;;;;;;;6269582;28;24507;-75
2024/02/01 06:06:22;;;;;;;29.65;20.00;;;;;;;;;;6267993;28;24866;-74
2024/02/01 06:09:26;;;;;;;29.60;19.25;;;;;;;;;;6270261;28;24424;-75
2024/02/01 06:12:29;;;;;;;30.60;18.92;;;;;;;;;;6265280;28;24427;-73
2024/02/01 06:15:31;;;;;;;30.02;19.02;;;;;;;;;;6269217;28;24428;-75
2024/02/01 06:18:33;;;;;;;27.90;18.83;;;;;;;;;;6266530;28;24886;-75
2024/02/01 06:21:49;;;;;;;28.98;19.60;;;;;;;;;;6272570;28;24459;-75
2024/02/01 06:24:50;;;;;;;29.27;18.70;;;;;;;;;;6289267;28;24807;-74
2024/02/01 06:27:54;;;;;;;27.20;18.38;;;;;;;;;;6268216;28;24438;-74
2024/02/01 06:30:57;;;;;;;30.17;19.27;;;;;;;;;;6269094;28;24934;-74
2024/02/01 06:33:59;;;;;;;27.43;18.60;;;;;;;;;;6270637;28;24515;-74
2024/02/01 06:37:04;;;;;;;28.15;18.42;;;;;;;;;;6268771;28;24415;-75
2024/02/01 06:40:37;;;;;;;27.33;17.63;;;;;;;;;;6272391;28;24446;-75
2024/02/01 06:44:01;;;;;;;28.17;17.92;;;;;;;;;;6266795;28;24438;-74
2024/02/01 06:47:11;;;;;;;25.88;17.40;;;;;;;;;;6267524;28;24815;-74
2024/02/01 06:50:24;;;;;;;26.15;16.67;;;;;;;;;;6265131;28;24439;-74
2024/02/01 06:53:33;;;;;;;23.97;16.40;;;;;;;;;;6267144;28;24522;-74
2024/02/01 06:56:48;;;;;;;24.30;16.05;;;;;;;;;;6266465;28;24422;-75
2024/02/01 07:00:17;;;;;;;24.50;16.08;;;;;;;;;;6267733;28;24507;-75
2024/02/01 07:03:44;;;;;;;24.45;16.38;;;;;;;;;;6268846;28;24770;-75
2024/02/01 07:10:14;;;;;;;24.47;15.93;;;;;;;;;;6263821;28;24442;-76
2024/02/01 07:13:34;;;;;;;21.65;15.30;;;;;;;;;;6241711;28;24427;-75
2024/02/01 07:16:53;;;;;;;24.60;15.73;;;;;;;;;;6240101;28;24612;-75
2024/02/01 07:20:03;;;;;;;22.48;15.18;;;;;;;;;;6248855;28;24517;-75
2024/02/01 07:23:33;;;;;;;24.87;15.07;;;;;;;;;;6240798;28;24408;-76
2024/02/01 07:26:43;;;;;;;25.30;15.10;;;;;;;;;;6243871;28;24798;-74
2024/02/01 07:59:58;;;;;;;26.67;16.75;;;;;;;;;;6174896;28;24929;-75
2024/02/01 08:03:11;;;;;;;26.40;16.52;;;;;;;;;;6190108;28;24524;-75
2024/02/01 08:09:33;;;;;;;27.70;16.70;;;;;;;;;;6186657;28;24784;-78
2024/02/01 08:12:34;;;;;;;27.50;16.90;;;;;;;;;;6189234;28;24576;-78
2024/02/01 08:15:38;;;;;;;24.60;15.85;;;;;;;;;;6174557;28;24448;-78
2024/02/01 08:18:39;;;;;;;24.58;15.85;;;;;;;;;;6189041;28;24893;-79
2024/02/01 08:21:42;;;;;;;31.95;19.55;;;;;;;;;;6233199;28;24435;-78
2024/02/01 08:24:44;;;;;;;38.08;24.85;;;;;;;;;;6240189;28;24416;-78
2024/02/01 08:27:53;;;;;;;44.53;28.23;;;;;;;;;;6271427;28;24478;-77
2024/02/01 08:31:02;;;;;;;40.00;27.55;;;;;;;;;;6236732;28;24844;-78
2024/02/01 08:34:07;;;;;;;45.47;30.35;;;;;;;;;;6241877;28;24783;-78
2024/02/01 08:37:10;;;;;;;46.50;31.10;;;;;;;;;;6239450;28;25146;-78
2024/02/01 08:40:17;;;;;;;43.83;29.17;;;;;;;;;;6242098;28;24448;-78
2024/02/01 08:43:18;;;;;;;42.80;29.43;;;;;;;;;;6237525;28;25016;-79
2024/02/01 08:46:22;;;;;;;44.10;28.93;;;;;;;;;;6240838;28;24431;-79
2024/02/01 08:49:23;;;;;;;40.03;27.30;;;;;;;;;;6242543;28;24443;-79
2024/02/01 08:52:26;;;;;;;43.50;29.10;;;;;;;;;;6240978;28;25363;-78
2024/02/01 08:55:29;;;;;;;42.90;29.00;;;;;;;;;;6239194;28;24621;-79
2024/02/01 08:58:31;;;;;;;42.65;29.35;;;;;;;;;;6240355;28;24527;-79
2024/02/01 09:01:33;;;;;;;43.33;29.15;;;;;;;;;;6240266;28;24403;-79
2024/02/01 09:04:35;;;;;;;44.10;29.33;;;;;;;;;;6237421;28;24410;-79
2024/02/01 09:07:41;;;;;;;44.08;29.45;;;;;;;;;;6238262;28;24432;-79
2024/02/01 09:10:50;;;;;;;42.33;27.10;;;;;;;;;;6239681;28;24662;-79
2024/02/01 09:13:52;;;;;;;38.53;24.92;;;;;;;;;;6241075;28;24482;-79
2024/02/01 09:16:53;;;;;;;37.33;23.27;;;;;;;;;;6238374;28;24424;-79
2024/02/01 09:19:55;;;;;;;37.30;23.75;;;;;;;;;;6239012;28;24623;-77
2024/02/01 09:22:58;;;;;;;37.17;23.38;;;;;;;;;;6237048;28;24427;-77
2024/02/01 09:26:00;;;;;;;35.13;23.05;;;;;;;;;;6237396;28;24724;-77
2024/02/01 09:29:11;;;;;;;36.45;22.48;;;;;;;;;;6235397;28;24447;-77
2024/02/01 09:32:15;;;;;;;31.83;21.73;;;;;;;;;;6242743;28;24422;-79
2024/02/01 09:35:17;;;;;;;36.35;22.60;;;;;;;;;;6244595;28;24872;-78
2024/02/01 09:38:21;;;;;;;35.60;22.47;;;;;;;;;;6244015;28;24687;-78
2024/02/01 09:41:24;;;;;;;36.00;22.55;;;;;;;;;;6245805;28;24420;-78
2024/02/01 09:44:26;;;;;;;31.65;20.90;;;;;;;;;;6245769;28;24432;-78
2024/02/01 09:47:28;;;;;;;31.02;20.42;;;;;;;;;;6244108;28;24434;-78
2024/02/01 09:50:30;;;;;;;33.37;20.53;;;;;;;;;;6243038;28;24649;-77
2024/02/01 09:53:36;;;;;;;30.98;20.23;;;;;;;;;;6257622;28;24468;-77
2024/02/01 09:56:38;;;;;;;33.03;20.88;;;;;;;;;;6251778;28;24511;-77
2024/02/01 09:59:40;;;;;;;31.38;20.17;;;;;;;;;;6241278;28;24446;-78
2024/02/01 10:02:43;;;;;;;35.67;22.02;;;;;;;;;;6245958;28;24431;-78
2024/02/01 10:05:46;;;;;;;33.33;21.80;;;;;;;;;;6240321;28;24447;-78
2024/02/01 10:08:54;;;;;;;32.38;21.45;;;;;;;;;;6243686;28;24535;-80
2024/02/01 10:11:58;;;;;;;33.58;21.38;;;;;;;;;;6240976;28;24423;-80
2024/02/01 10:14:59;;;;;;;34.17;22.57;;;;;;;;;;6244039;28;24533;-78
2024/02/01 10:18:06;;;;;;;37.70;24.20;;;;;;;;;;6243410;28;24439;-78
2024/02/01 10:21:21;;;;;;;40.08;26.75;;;;;;;;;;6246402;28;24554;-78
2024/02/01 10:24:26;;;;;;;46.90;28.70;;;;;;;;;;6247480;28;24861;-77
2024/02/01 10:27:28;;;;;;;41.42;27.85;;;;;;;;;;6242210;28;24436;-74
2024/02/01 10:30:29;;;;;;;46.63;28.83;;;;;;;;;;6291823;28;24614;-74
2024/02/01 10:33:32;;;;;;;44.50;29.50;;;;;;;;;;6243256;28;24431;-73
2024/02/01 10:36:37;;;;;;;47.45;29.38;;;;;;;;;;6239868;28;24420;-74
2024/02/01 10:39:44;;;;;;;45.22;28.10;;;;;;;;;;6241389;28;24433;-74
2024/02/01 10:42:47;;;;;;;43.15;27.90;;;;;;;;;;6240759;28;24470;-75
2024/02/01 10:46:05;;;;;;;48.67;30.98;;;;;;;;;;6239771;28;24423;-75
2024/02/01 10:49:07;;;;;;;53.45;33.53;;;;;;;;;;6242661;28;24836;-74
2024/02/01 10:52:11;;;;;;;55.13;34.80;;;;;;;;;;6242985;28;24427;-75
2024/02/01 10:55:14;;;;;;;52.15;33.22;;;;;;;;;;6242736;28;24487;-75
2024/02/01 10:58:18;;;;;;;59.45;35.65;;;;;;;;;;6244912;28;24436;-75
2024/02/01 11:01:24;;;;;;;56.38;35.30;;;;;;;;;;6244299;28;24440;-74
2024/02/01 11:04:33;;;;;;;59.83;37.70;;;;;;;;;;6239513;28;24805;-75
2024/02/01 11:07:35;;;;;;;62.90;37.70;;;;;;;;;;6240461;28;24801;-75
2024/02/01 11:10:38;;;;;;;62.33;38.53;;;;;;;;;;6241765;28;25039;-75
2024/02/01 11:13:40;;;;;;;63.03;38.08;;;;;;;;;;6238470;28;24968;-75
2024/02/01 11:16:42;;;;;;;63.07;38.87;;;;;;;;;;6240693;28;24451;-76
2024/02/01 11:19:48;;;;;;;62.20;38.83;;;;;;;;;;6242383;28;24856;-74
2024/02/01 11:22:55;;;;;;;60.67;38.40;;;;;;;;;;6241218;28;24419;-75
2024/02/01 11:25:59;;;;;;;61.67;38.03;;;;;;;;;;6239625;28;24610;-74
2024/02/01 11:29:01;;;;;;;59.37;36.93;;;;;;;;;;6232887;28;24532;-74
2024/02/01 11:32:05;;;;;;;59.63;38.20;;;;;;;;;;6242924;28;24595;-74
2024/02/01 11:35:10;;;;;;;57.40;35.40;;;;;;;;;;6240744;28;24431;-74
2024/02/01 11:38:11;;;;;;;54.42;34.60;;;;;;;;;;6241733;28;24466;-78
2024/02/01 11:41:14;;;;;;;54.53;34.97;;;;;;;;;;6240348;28;24826;-78
2024/02/01 11:44:18;;;;;;;56.75;34.58;;;;;;;;;;6239967;28;24429;-77
2024/02/01 11:47:26;;;;;;;53.75;33.45;;;;;;;;;;6240058;28;24419;-78
2024/02/01 11:50:28;;;;;;;52.07;32.70;;;;;;;;;;6240349;28;24765;-78
2024/02/01 11:53:29;;;;;;;50.40;31.70;;;;;;;;;;6239963;28;24631;-78
2024/02/01 11:56:32;;;;;;;49.40;30.93;;;;;;;;;;6241357;28;24424;-78
2024/02/01 11:59:34;;;;;;;44.20;28.23;;;;;;;;;;6239385;28;24499;-78
2024/02/01 12:02:36;;;;;;;42.47;26.17;;;;;;;;;;6236714;28;24427;-78
2024/02/01 12:05:37;;;;;;;39.13;25.80;;;;;;;;;;6236198;28;24424;-78
2024/02/01 12:08:39;;;;;;;36.50;24.80;;;;;;;;;;6241962;28;24424;-78
2024/02/01 12:11:43;;;;;;;35.33;23.25;;;;;;;;;;6241264;28;24818;-78
2024/02/01 12:14:45;;;;;;;37.47;24.07;;;;;;;;;;6240928;28;24904;-78
2024/02/01 12:17:46;;;;;;;36.78;23.10;;;;;;;;;;6237938;28;24467;-79
2024/02/01 12:20:48;;;;;;;34.20;22.98;;;;;;;;;;6240235;28;24432;-78
2024/02/01 12:23:50;;;;;;;37.13;24.08;;;;;;;;;;6238279;28;24665;-78
2024/02/01 12:26:53;;;;;;;38.75;23.52;;;;;;;;;;6239502;28;24424;-78
2024/02/01 12:29:55;;;;;;;38.88;23.13;;;;;;;;;;6237375;28;24447;-79
2024/02/01 12:32:56;;;;;;;33.80;22.05;;;;;;;;;;6240948;28;24428;-78
2024/02/01 12:36:00;;;;;;;35.15;21.88;;;;;;;;;;6241901;28;24430;-78
2024/02/01 12:39:03;;;;;;;36.08;21.60;;;;;;;;;;6261710;28;24472;-77
2024/02/01 12:42:07;;;;;;;34.95;21.83;;;;;;;;;;6241517;28;24540;-79
2024/02/01 12:45:17;;;;;;;36.65;22.20;;;;;;;;;;6239316;28;24439;-77
2024/02/01 12:48:18;;;;;;;36.78;22.83;;;;;;;;;;6270579;28;24441;-78
2024/02/01 12:51:26;;;;;;;34.70;21.02;;;;;;;;;;6236733;28;24424;-79
2024/02/01 12:54:28;;;;;;;33.15;21.00;;;;;;;;;;6241209;28;24471;-78
2024/02/01 12:57:31;;;;;;;37.67;22.73;;;;;;;;;;6244632;28;24442;-79
2024/02/01 13:00:33;;;;;;;36.38;22.77;;;;;;;;;;6238095;28;24451;-78
2024/02/01 13:03:35;;;;;;;36.72;22.50;;;;;;;;;;6241726;28;24424;-78
2024/02/01 13:06:37;;;;;;;38.35;24.27;;;;;;;;;;6239239;28;24424;-79
2024/02/01 13:09:41;;;;;;;37.40;22.63;;;;;;;;;;6239919;28;24427;-78
2024/02/01 13:12:55;;;;;;;34.10;22.00;;;;;;;;;;6246536;28;24477;-78
2024/02/01 13:15:57;;;;;;;34.78;21.90;;;;;;;;;;6244512;28;24853;-79
2024/02/01 13:18:59;;;;;;;36.90;22.23;;;;;;;;;;6247540;28;24599;-78
2024/02/01 13:22:01;;;;;;;35.35;21.90;;;;;;;;;;6242733;28;24470;-79
2024/02/01 13:25:03;;;;;;;38.38;24.15;;;;;;;;;;6242195;28;24427;-78
2024/02/01 13:28:08;;;;;;;39.60;24.13;;;;;;;;;;6242055;28;24802;-78
2024/02/01 13:31:10;;;;;;;38.25;23.45;;;;;;;;;;6243765;28;24805;-79
2024/02/01 13:34:13;;;;;;;42.58;24.65;;;;;;;;;;6246125;28;24488;-78
2024/02/01 13:37:14;;;;;;;38.88;22.75;;;;;;;;;;6243349;28;24614;-79
2024/02/01 13:40:16;;;;;;;34.88;21.65;;;;;;;;;;6245329;28;24436;-79
2024/02/01 13:43:19;;;;;;;37.25;22.65;;;;;;;;;;6244464;28;24428;-80
2024/02/01 13:46:22;;;;;;;37.53;23.23;;;;;;;;;;6242059;28;24659;-80
2024/02/01 13:49:25;;;;;;;39.40;23.75;;;;;;;;;;6244410;28;24491;-78
2024/02/01 13:52:27;;;;;;;35.53;22.60;;;;;;;;;;6276459;28;24471;-79
2024/02/01 13:55:30;;;;;;;34.22;21.38;;;;;;;;;;6242930;28;24419;-79
2024/02/01 13:58:33;;;;;;;35.30;22.17;;;;;;;;;;6244805;28;24416;-76
2024/02/01 14:01:35;;;;;;;33.05;22.02;;;;;;;;;;6246292;28;24471;-75
2024/02/01 14:04:36;;;;;;;37.10;22.33;;;;;;;;;;6242713;28;24458;-75
2024/02/01 14:07:38;;;;;;;35.03;22.35;;;;;;;;;;6243433;28;24404;-75
2024/02/01 14:10:40;;;;;;;36.67;23.40;;;;;;;;;;6243458;28;24840;-75
2024/02/01 14:13:43;;;;;;;38.90;24.00;;;;;;;;;;6247470;28;24416;-75
2024/02/01 14:16:44;;;;;;;36.95;23.45;;;;;;;;;;6246145;28;24423;-75
2024/02/01 14:19:46;;;;;;;38.08;22.58;;;;;;;;;;6246408;28;24415;-75
2024/02/01 14:22:48;;;;;;;35.63;23.25;;;;;;;;;;6275643;28;24405;-74
2024/02/01 14:25:50;;;;;;;37.15;24.15;;;;;;;;;;6242209;28;24455;-74
2024/02/01 14:28:55;;;;;;;38.83;24.52;;;;;;;;;;6249227;28;24414;-74
2024/02/01 14:31:59;;;;;;;38.50;25.23;;;;;;;;;;6244110;28;24423;-74
2024/02/01 14:35:00;;;;;;;37.15;25.05;;;;;;;;;;6278543;28;24420;-75
2024/02/01 14:38:03;;;;;;;37.78;25.70;;;;;;;;;;6244916;28;24415;-75
2024/02/01 14:41:05;;;;;;;42.17;28.38;;;;;;;;;;6243168;28;24480;-74
2024/02/01 14:44:08;;;;;;;39.93;26.60;;;;;;;;;;6242514;28;24416;-76
2024/02/01 14:47:10;;;;;;;41.42;25.60;;;;;;;;;;6241554;28;25108;-75
2024/02/01 14:50:15;;;;;;;38.10;25.13;;;;;;;;;;6243218;28;24436;-74
2024/02/01 14:53:16;;;;;;;37.97;25.85;;;;;;;;;;6244234;28;24495;-75
2024/02/01 14:56:18;;;;;;;41.57;26.77;;;;;;;;;;6239333;28;24510;-74
2024/02/01 14:59:21;;;;;;;42.60;28.80;;;;;;;;;;6242164;28;24440;-74
2024/02/01 15:02:22;;;;;;;41.40;29.33;;;;;;;;;;6240757;28;24626;-74
2024/02/01 15:05:25;;;;;;;44.50;30.20;;;;;;;;;;6242319;28;24431;-74
2024/02/01 15:08:27;;;;;;;42.75;29.77;;;;;;;;;;6242373;28;24511;-75
2024/02/01 15:11:29;;;;;;;40.77;29.00;;;;;;;;;;6239807;28;25003;-75
2024/02/01 15:14:34;;;;;;;46.78;31.38;;;;;;;;;;6246307;28;25068;-75
2024/02/01 15:17:36;;;;;;;42.77;29.97;;;;;;;;;;6243763;28;24420;-75
2024/02/01 15:20:38;;;;;;;42.13;30.97;;;;;;;;;;6242151;28;24428;-75
2024/02/01 15:23:39;;;;;;;44.35;32.15;;;;;;;;;;6242273;28;24438;-75
2024/02/01 15:26:41;;;;;;;45.07;31.67;;;;;;;;;;6244893;28;24435;-75
2024/02/01 15:29:44;;;;;;;46.00;31.67;;;;;;;;;;6241856;28;24567;-75
2024/02/01 15:32:46;;;;;;;45.47;31.13;;;;;;;;;;6244617;28;24495;-75
2024/02/01 15:35:48;;;;;;;101.53;64.13;;;;;;;;;;6244299;28;24631;-74
2024/02/01 15:38:49;;;;;;;110.65;69.63;;;;;;;;;;6245607;28;24421;-74
2024/02/01 15:41:57;;;;;;;105.83;63.50;;;;;;;;;;6242305;28;24498;-75
2024/02/01 15:45:06;;;;;;;107.97;65.90;;;;;;;;;;6243544;28;24883;-75
2024/02/01 15:48:08;;;;;;;123.20;76.75;;;;;;;;;;6244602;28;24419;-74
2024/02/01 15:51:14;;;;;;;137.85;84.03;;;;;;;;;;6243997;28;24623;-74
2024/02/01 15:54:16;;;;;;;124.43;72.18;;;;;;;;;;6243641;28;24455;-73
2024/02/01 15:57:17;;;;;;;80.50;51.25;;;;;;;;;;6242509;28;24436;-74
2024/02/01 16:00:21;;;;;;;62.78;40.90;;;;;;;;;;6241380;28;24427;-74
2024/02/01 16:03:25;;;;;;;53.13;36.55;;;;;;;;;;6238863;28;24852;-74
2024/02/01 16:06:26;;;;;;;58.80;37.92;;;;;;;;;;6243244;28;24563;-74
2024/02/01 16:09:28;;;;;;;54.47;37.13;;;;;;;;;;6240333;28;24425;-75
2024/02/01 16:12:30;;;;;;;53.63;36.80;;;;;;;;;;6239357;28;24428;-74
2024/02/01 16:15:34;;;;;;;56.35;37.47;;;;;;;;;;6238804;28;24467;-75
2024/02/01 16:18:37;;;;;;;57.72;38.13;;;;;;;;;;6237706;28;24416;-76
2024/02/01 16:21:38;;;;;;;60.22;39.90;;;;;;;;;;6269703;28;24443;-75
2024/02/01 16:24:57;;;;;;;59.88;39.63;;;;;;;;;;6239555;28;24417;-75
2024/02/01 16:28:02;;;;;;;59.60;39.87;;;;;;;;;;6238573;28;24550;-75
2024/02/01 16:31:06;;;;;;;61.22;41.38;;;;;;;;;;6262083;28;24482;-76
2024/02/01 16:34:27;;;;;;;63.90;43.10;;;;;;;;;;6266535;28;24455;-75
2024/02/01 16:37:28;;;;;;;59.97;40.10;;;;;;;;;;6265707;28;24535;-76
2024/02/01 16:40:34;;;;;;;61.47;40.78;;;;;;;;;;6267061;28;24805;-76
2024/02/01 16:43:37;;;;;;;63.53;41.30;;;;;;;;;;6263800;28;24785;-75
2024/02/01 16:46:51;;;;;;;62.00;41.95;;;;;;;;;;6298019;28;24419;-76
2024/02/01 16:49:55;;;;;;;63.25;41.05;;;;;;;;;;6265470;28;24566;-75
2024/02/01 16:52:57;;;;;;;63.00;41.67;;;;;;;;;;6262127;28;24469;-76
2024/02/01 16:55:59;;;;;;;58.15;38.97;;;;;;;;;;6264737;28;24526;-75
2024/02/01 16:59:01;;;;;;;62.77;41.30;;;;;;;;;;6269524;28;24461;-75
2024/02/01 17:02:08;;;;;;;64.22;42.75;;;;;;;;;;6279670;28;24463;-73
2024/02/01 17:05:16;;;;;;;182.32;103.88;;;;;;;;;;6265658;28;24470;-75
2024/02/01 17:08:28;;;;;;;154.88;88.97;;;;;;;;;;6265449;28;24431;-75
2024/02/01 17:11:35;;;;;;;269.00;136.82;;;;;;;;;;6265945;28;24832;-75
2024/02/01 17:14:37;;;;;;;213.60;112.37;;;;;;;;;;6264526;28;24432;-75
2024/02/01 17:17:40;;;;;;;109.67;64.27;;;;;;;;;;6269754;28;24859;-74
2024/02/01 17:20:44;;;;;;;72.73;47.30;;;;;;;;;;6264338;28;24883;-75
2024/02/01 17:23:46;;;;;;;69.78;44.45;;;;;;;;;;6264028;28;24431;-76
2024/02/01 17:26:48;;;;;;;64.43;42.50;;;;;;;;;;6263258;28;24524;-80
2024/02/01 17:29:55;;;;;;;68.23;42.87;;;;;;;;;;6263843;28;24426;-79
2024/02/01 17:32:59;;;;;;;69.57;44.22;;;;;;;;;;6264745;28;24438;-80
2024/02/01 17:36:00;;;;;;;66.32;43.00;;;;;;;;;;6261480;28;24431;-79
2024/02/01 17:39:04;;;;;;;67.18;42.92;;;;;;;;;;6263529;28;24435;-80
2024/02/01 17:42:06;;;;;;;67.05;43.30;;;;;;;;;;6267124;28;24598;-79
2024/02/01 17:45:21;;;;;;;67.32;42.67;;;;;;;;;;6264187;28;24423;-79
2024/02/01 17:48:27;;;;;;;64.70;43.05;;;;;;;;;;6264056;28;24432;-80
2024/02/01 17:51:31;;;;;;;63.50;42.65;;;;;;;;;;6267378;28;24637;-79
2024/02/01 17:54:34;;;;;;;65.05;42.08;;;;;;;;;;6266206;28;24610;-80
2024/02/01 17:57:40;;;;;;;62.93;42.40;;;;;;;;;;6266067;28;24434;-79
2024/02/01 18:00:42;;;;;;;64.03;41.95;;;;;;;;;;6266313;28;24595;-80
2024/02/01 18:03:47;;;;;;;65.47;42.97;;;;;;;;;;6268550;28;24922;-79
2024/02/01 18:06:51;;;;;;;66.25;42.63;;;;;;;;;;6266141;28;24424;-79
2024/02/01 18:09:55;;;;;;;64.00;42.00;;;;;;;;;;6270626;28;24506;-80
2024/02/01 18:12:57;;;;;;;65.15;42.40;;;;;;;;;;6265669;28;24530;-79
2024/02/01 18:16:05;;;;;;;63.53;42.22;;;;;;;;;;6267480;28;24522;-79
2024/02/01 18:19:15;;;;;;;63.28;41.60;;;;;;;;;;6270683;28;24431;-78
2024/02/01 18:22:17;;;;;;;66.78;43.20;;;;;;;;;;6263591;28;24447;-79
2024/02/01 18:25:19;;;;;;;67.15;43.85;;;;;;;;;;6298726;28;24471;-78